Time;durP1;ratioP1;P1;durP2;ratioP2;P2;SDS_P1;SDS_P2;PMS_P1;PMS_P2;Temp;Humidity;BMP_temperature;BMP_pressure;BME280_temperature;BME280_humidity;BME280_pressure;Samples;Min_cycle;Max_cycle;Signal;HPM_P1;HPM_P2
2021/03/28 00:00:01;;;;;;;9.38;4.70;;;;;;;;;;5057067;28;20025;-88
2021/03/28 00:02:34;;;;;;;10.10;4.50;;;;;;;;;;5050831;28;20044;-88
2021/03/28 00:05:09;;;;;;;12.00;4.75;;;;;;;;;;5052838;28;20056;-88
2021/03/28 00:07:40;;;;;;;9.45;4.38;;;;;;;;;;5059137;28;20419;-88
2021/03/28 00:10:23;;;;;;;7.70;3.83;;;;;;;;;;5054910;28;20457;-88
2021/03/28 00:12:49;;;;;;;8.65;4.30;;;;;;;;;;5053159;28;20028;-88
2021/03/28 00:15:18;;;;;;;11.48;4.75;;;;;;;;;;5052661;28;20055;-88
2021/03/28 00:17:50;;;;;;;12.00;4.20;;;;;;;;;;5062286;28;20119;-88
2021/03/28 00:20:16;;;;;;;7.93;3.85;;;;;;;;;;5057548;28;20029;-88
2021/03/28 00:22:46;;;;;;;6.50;3.80;;;;;;;;;;5050991;28;20366;-88
2021/03/28 00:25:15;;;;;;;7.40;3.47;;;;;;;;;;5050800;28;20032;-87
2021/03/28 00:27:50;;;;;;;10.45;3.85;;;;;;;;;;5054893;28;20519;-87
2021/03/28 00:30:16;;;;;;;9.60;3.88;;;;;;;;;;5051023;28;20033;-87
2021/03/28 00:32:44;;;;;;;7.90;3.35;;;;;;;;;;5046795;28;20361;-87
2021/03/28 00:35:19;;;;;;;8.77;3.33;;;;;;;;;;5055505;28;20146;-87
2021/03/28 00:37:46;;;;;;;16.30;4.32;;;;;;;;;;5052576;28;20384;-87
2021/03/28 00:40:12;;;;;;;9.55;4.57;;;;;;;;;;5064203;28;20033;-88
2021/03/28 00:42:39;;;;;;;7.80;4.30;;;;;;;;;;5054405;28;20032;-88
2021/03/28 00:45:08;;;;;;;8.80;3.80;;;;;;;;;;5057213;28;20029;-88
2021/03/28 00:47:35;;;;;;;12.52;4.18;;;;;;;;;;5050679;28;20029;-88
2021/03/28 00:50:24;;;;;;;8.10;4.00;;;;;;;;;;5050834;28;20119;-88
2021/03/28 00:52:52;;;;;;;10.50;4.20;;;;;;;;;;5042654;28;20136;-88
2021/03/28 00:55:20;;;;;;;11.73;4.50;;;;;;;;;;5054693;28;20033;-88
2021/03/28 00:57:57;;;;;;;10.13;3.75;;;;;;;;;;5050595;28;20055;-88
2021/03/28 01:00:38;;;;;;;12.98;4.22;;;;;;;;;;5050414;28;20075;-88
2021/03/28 01:03:08;;;;;;;9.88;4.07;;;;;;;;;;5058120;28;20029;-88
2021/03/28 01:05:36;;;;;;;9.35;3.92;;;;;;;;;;5041947;28;20025;-88
2021/03/28 01:08:18;;;;;;;9.20;4.40;;;;;;;;;;5053430;28;20036;-87
2021/03/28 01:11:05;;;;;;;11.77;4.05;;;;;;;;;;5050470;28;20029;-87
2021/03/28 01:13:50;;;;;;;12.43;4.15;;;;;;;;;;5051493;28;20025;-88
2021/03/28 01:16:34;;;;;;;7.70;4.03;;;;;;;;;;5059934;28;20052;-88
2021/03/28 01:19:08;;;;;;;10.93;4.28;;;;;;;;;;5035601;28;20032;-88
2021/03/28 01:21:53;;;;;;;17.40;4.57;;;;;;;;;;5059127;28;20025;-88
2021/03/28 01:24:19;;;;;;;10.00;4.25;;;;;;;;;;5049646;28;20045;-88
2021/03/28 01:26:57;;;;;;;13.63;4.75;;;;;;;;;;5059259;28;20071;-88
2021/03/28 01:29:28;;;;;;;17.23;4.72;;;;;;;;;;5050556;28;20029;-88
2021/03/28 01:31:57;;;;;;;13.00;3.95;;;;;;;;;;5067514;28;20488;-88
2021/03/28 01:34:29;;;;;;;10.38;4.47;;;;;;;;;;5055662;28;20110;-87
2021/03/28 01:37:04;;;;;;;10.57;4.22;;;;;;;;;;5050132;28;20071;-88
2021/03/28 01:39:41;;;;;;;12.43;4.47;;;;;;;;;;5045943;28;20116;-88
2021/03/28 01:42:26;;;;;;;8.20;4.13;;;;;;;;;;5059955;28;20025;-88
2021/03/28 01:44:54;;;;;;;8.13;3.80;;;;;;;;;;5061015;28;20033;-88
2021/03/28 01:47:26;;;;;;;14.38;4.35;;;;;;;;;;5055547;28;20039;-88
2021/03/28 01:50:08;;;;;;;12.95;4.20;;;;;;;;;;5051530;28;20029;-88
2021/03/28 01:52:41;;;;;;;9.77;3.55;;;;;;;;;;5057142;28;20117;-88
2021/03/28 01:55:16;;;;;;;9.38;4.07;;;;;;;;;;5049481;28;20040;-88
2021/03/28 01:58:00;;;;;;;13.30;4.30;;;;;;;;;;5054192;28;20047;-88
2021/03/28 02:00:26;;;;;;;11.43;4.68;;;;;;;;;;5056333;28;20017;-89
2021/03/28 02:03:04;;;;;;;6.65;3.78;;;;;;;;;;5064088;28;20029;-89
2021/03/28 02:05:48;;;;;;;12.40;4.60;;;;;;;;;;5054664;28;20120;-90
2021/03/28 02:08:27;;;;;;;8.68;3.58;;;;;;;;;;5074836;28;20013;-88
2021/03/28 02:10:56;;;;;;;8.82;3.47;;;;;;;;;;5066894;28;20523;-88
2021/03/28 02:13:28;;;;;;;11.95;4.10;;;;;;;;;;5058040;28;20065;-88
2021/03/28 02:16:13;;;;;;;13.48;3.85;;;;;;;;;;5053963;28;20477;-88
2021/03/28 02:18:50;;;;;;;12.40;4.22;;;;;;;;;;5063240;28;20107;-87
2021/03/28 02:21:36;;;;;;;12.57;4.28;;;;;;;;;;5056448;28;20046;-88
2021/03/28 02:24:21;;;;;;;16.38;4.18;;;;;;;;;;5039218;28;20083;-88
2021/03/28 02:27:02;;;;;;;14.18;4.25;;;;;;;;;;5049388;28;20073;-88
2021/03/28 02:29:31;;;;;;;18.15;5.07;;;;;;;;;;5059936;28;20122;-88
2021/03/28 02:32:03;;;;;;;10.30;3.70;;;;;;;;;;5053344;28;20392;-88
2021/03/28 02:34:55;;;;;;;12.30;4.00;;;;;;;;;;5058036;28;20396;-88
2021/03/28 02:37:26;;;;;;;10.20;3.65;;;;;;;;;;5056935;28;20029;-88
2021/03/28 02:40:10;;;;;;;9.70;3.75;;;;;;;;;;5056280;28;20012;-88
2021/03/28 02:42:51;;;;;;;11.48;4.07;;;;;;;;;;5053155;28;20503;-88
2021/03/28 02:45:22;;;;;;;11.95;4.18;;;;;;;;;;5053191;28;20097;-88
2021/03/28 02:47:48;;;;;;;15.40;4.25;;;;;;;;;;5059180;28;20111;-88
2021/03/28 02:50:29;;;;;;;12.43;4.10;;;;;;;;;;5058837;28;20025;-87
2021/03/28 02:53:10;;;;;;;12.00;3.83;;;;;;;;;;5053116;28;20036;-87
2021/03/28 02:55:54;;;;;;;11.13;4.28;;;;;;;;;;5056971;28;20032;-88
2021/03/28 02:58:39;;;;;;;15.60;4.25;;;;;;;;;;5062067;28;20926;-88
2021/03/28 03:01:18;;;;;;;11.95;4.38;;;;;;;;;;5059924;28;20056;-88
2021/03/28 03:04:03;;;;;;;8.88;3.97;;;;;;;;;;5058627;28;20053;-88
2021/03/28 03:06:46;;;;;;;7.35;3.65;;;;;;;;;;5052471;28;20127;-88
2021/03/28 03:09:21;;;;;;;13.07;3.97;;;;;;;;;;5050853;28;20068;-88
2021/03/28 03:11:58;;;;;;;9.40;4.05;;;;;;;;;;5062189;28;20144;-88
2021/03/28 03:14:43;;;;;;;15.35;4.07;;;;;;;;;;5066117;28;20072;-87
2021/03/28 03:17:28;;;;;;;14.98;4.22;;;;;;;;;;5055236;28;20079;-87
2021/03/28 03:20:06;;;;;;;14.02;5.32;;;;;;;;;;5056968;28;20029;-87
2021/03/28 03:22:44;;;;;;;12.27;4.22;;;;;;;;;;5051824;28;20112;-87
2021/03/28 03:25:29;;;;;;;8.15;4.10;;;;;;;;;;5052734;28;20107;-87
2021/03/28 03:27:55;;;;;;;15.07;4.30;;;;;;;;;;5044575;28;20075;-87
2021/03/28 03:30:36;;;;;;;10.20;4.80;;;;;;;;;;5053004;28;20025;-87
2021/03/28 03:33:02;;;;;;;10.60;3.80;;;;;;;;;;5051543;28;20029;-87
2021/03/28 03:35:34;;;;;;;8.05;3.55;;;;;;;;;;5052570;28;20484;-87
2021/03/28 03:38:03;;;;;;;9.47;3.80;;;;;;;;;;5051668;28;20507;-87
2021/03/28 03:40:35;;;;;;;12.38;3.72;;;;;;;;;;5047547;28;20067;-87
2021/03/28 03:43:18;;;;;;;15.40;4.00;;;;;;;;;;5043058;28;20043;-87
2021/03/28 03:45:57;;;;;;;14.75;4.10;;;;;;;;;;5038645;28;20087;-87
2021/03/28 03:48:23;;;;;;;10.30;3.53;;;;;;;;;;5057509;28;20029;-87
2021/03/28 03:50:55;;;;;;;7.85;3.60;;;;;;;;;;5059646;28;20025;-87
2021/03/28 03:53:26;;;;;;;12.45;3.70;;;;;;;;;;5051458;28;20025;-87
2021/03/28 03:55:52;;;;;;;13.02;4.13;;;;;;;;;;5056389;28;20033;-87
2021/03/28 03:58:36;;;;;;;13.27;4.45;;;;;;;;;;5055019;28;20069;-87
2021/03/28 04:01:02;;;;;;;12.35;3.75;;;;;;;;;;5055576;28;20562;-87
2021/03/28 04:03:31;;;;;;;11.40;4.10;;;;;;;;;;5051808;28;20021;-87
2021/03/28 04:06:01;;;;;;;16.48;4.07;;;;;;;;;;5057741;28;20052;-87
2021/03/28 04:08:42;;;;;;;10.27;3.83;;;;;;;;;;5048194;28;20115;-87
2021/03/28 04:11:11;;;;;;;9.70;4.13;;;;;;;;;;5056710;28;20028;-87
2021/03/28 04:13:47;;;;;;;15.25;4.25;;;;;;;;;;5052476;28;20044;-87
2021/03/28 04:16:27;;;;;;;15.40;4.35;;;;;;;;;;5051358;28;20365;-87
2021/03/28 04:19:14;;;;;;;11.70;4.18;;;;;;;;;;5043690;28;20033;-87
2021/03/28 04:21:59;;;;;;;11.35;3.97;;;;;;;;;;5049164;28;20564;-88
2021/03/28 04:24:57;;;;;;;13.05;3.97;;;;;;;;;;5046988;28;20041;-87
2021/03/28 04:27:42;;;;;;;8.25;3.40;;;;;;;;;;5029227;28;20029;-86
2021/03/28 04:30:25;;;;;;;9.52;4.13;;;;;;;;;;5055276;28;20029;-86
2021/03/28 04:32:57;;;;;;;11.37;3.50;;;;;;;;;;5043004;28;20016;-87
2021/03/28 04:35:37;;;;;;;15.43;3.78;;;;;;;;;;5064059;28;20384;-87
2021/03/28 04:38:13;;;;;;;11.23;4.22;;;;;;;;;;5059530;28;20078;-87
2021/03/28 04:40:48;;;;;;;15.50;4.47;;;;;;;;;;5056371;28;20542;-86
2021/03/28 04:43:23;;;;;;;13.88;4.57;;;;;;;;;;5051135;28;20072;-86
2021/03/28 04:45:55;;;;;;;14.80;4.25;;;;;;;;;;5051194;28;20384;-86
2021/03/28 04:48:40;;;;;;;17.83;4.72;;;;;;;;;;5058368;28;20036;-86
2021/03/28 04:51:09;;;;;;;9.10;3.70;;;;;;;;;;5055955;28;20032;-86
2021/03/28 04:53:47;;;;;;;11.55;3.72;;;;;;;;;;5062890;28;20132;-86
2021/03/28 04:56:13;;;;;;;10.95;4.57;;;;;;;;;;5053997;28;20124;-86
2021/03/28 04:58:48;;;;;;;12.55;4.30;;;;;;;;;;5056142;28;20033;-87
2021/03/28 05:01:20;;;;;;;14.80;4.32;;;;;;;;;;5056993;28;20032;-87
2021/03/28 05:04:22;;;;;;;15.82;4.32;;;;;;;;;;5050311;28;20391;-87
2021/03/28 05:06:52;;;;;;;12.48;4.43;;;;;;;;;;4968057;28;20086;-87
2021/03/28 05:09:41;;;;;;;11.75;4.28;;;;;;;;;;5037366;28;20178;-87
2021/03/28 05:12:10;;;;;;;8.27;3.70;;;;;;;;;;5057116;28;20026;-87
2021/03/28 05:14:42;;;;;;;11.35;4.07;;;;;;;;;;5048737;28;20128;-87
2021/03/28 05:17:15;;;;;;;7.78;3.80;;;;;;;;;;5058600;28;20033;-87
2021/03/28 05:20:00;;;;;;;11.25;4.57;;;;;;;;;;5049804;28;20229;-87
2021/03/28 05:22:45;;;;;;;12.63;4.70;;;;;;;;;;5051756;28;20038;-86
2021/03/28 05:25:11;;;;;;;13.52;4.40;;;;;;;;;;5053178;28;20032;-87
2021/03/28 05:27:52;;;;;;;12.95;4.45;;;;;;;;;;5056075;28;20024;-87
2021/03/28 05:30:38;;;;;;;9.18;4.57;;;;;;;;;;5052680;28;20484;-87
2021/03/28 05:33:23;;;;;;;9.93;4.07;;;;;;;;;;5027508;28;20132;-86
2021/03/28 05:35:56;;;;;;;16.45;4.45;;;;;;;;;;5054051;28;20028;-87
2021/03/28 05:38:30;;;;;;;10.80;4.43;;;;;;;;;;5053520;28;20040;-87
2021/03/28 05:41:05;;;;;;;9.93;4.28;;;;;;;;;;5056138;28;20464;-87
2021/03/28 05:43:42;;;;;;;14.05;4.57;;;;;;;;;;5055449;28;20402;-87
2021/03/28 05:46:21;;;;;;;10.50;4.88;;;;;;;;;;5059761;28;20119;-87
2021/03/28 05:48:55;;;;;;;12.18;4.47;;;;;;;;;;5074540;28;20417;-87
2021/03/28 05:51:33;;;;;;;11.50;4.68;;;;;;;;;;5082687;28;20046;-88
2021/03/28 05:54:18;;;;;;;6.80;4.03;;;;;;;;;;5061375;28;20594;-87
2021/03/28 05:57:03;;;;;;;12.95;5.15;;;;;;;;;;5051260;28;20116;-87
2021/03/28 05:59:41;;;;;;;14.45;4.97;;;;;;;;;;5054790;28;20025;-87
2021/03/28 06:02:26;;;;;;;13.63;5.28;;;;;;;;;;5057270;28;20024;-87
2021/03/28 06:05:11;;;;;;;12.15;4.55;;;;;;;;;;5054904;28;20024;-87
2021/03/28 06:07:55;;;;;;;16.08;4.18;;;;;;;;;;5062386;28;20032;-87
2021/03/28 06:10:21;;;;;;;11.95;4.50;;;;;;;;;;5062475;28;20059;-86
2021/03/28 06:12:54;;;;;;;12.93;4.70;;;;;;;;;;5061558;28;20033;-86
2021/03/28 06:15:29;;;;;;;14.87;5.90;;;;;;;;;;5065220;28;20028;-86
2021/03/28 06:17:58;;;;;;;13.35;4.57;;;;;;;;;;5057170;28;20028;-87
2021/03/28 06:20:37;;;;;;;11.75;4.45;;;;;;;;;;5055540;28;20039;-87
2021/03/28 06:23:23;;;;;;;9.25;4.63;;;;;;;;;;5057788;28;20091;-86
2021/03/28 06:26:08;;;;;;;10.60;5.03;;;;;;;;;;5022718;28;20115;-86
2021/03/28 06:28:52;;;;;;;15.73;4.32;;;;;;;;;;5054346;28;20033;-86
2021/03/28 06:31:28;;;;;;;11.90;4.15;;;;;;;;;;5053350;28;20029;-86
2021/03/28 06:34:06;;;;;;;10.45;4.57;;;;;;;;;;5051492;28;20052;-88
2021/03/28 06:36:35;;;;;;;11.75;3.92;;;;;;;;;;5053967;28;20116;-87
2021/03/28 06:39:20;;;;;;;10.98;3.70;;;;;;;;;;5051101;28;20454;-87
2021/03/28 06:41:55;;;;;;;10.65;4.53;;;;;;;;;;5056250;28;20024;-87
2021/03/28 06:44:31;;;;;;;20.48;4.47;;;;;;;;;;5053628;28;20071;-87
2021/03/28 06:47:25;;;;;;;12.35;4.50;;;;;;;;;;5057159;28;20148;-87
2021/03/28 06:50:10;;;;;;;14.32;4.50;;;;;;;;;;5052992;28;20029;-87
2021/03/28 06:52:53;;;;;;;16.17;4.38;;;;;;;;;;5051467;28;20052;-88
2021/03/28 06:55:37;;;;;;;10.18;3.75;;;;;;;;;;5064293;28;20028;-88
2021/03/28 06:58:22;;;;;;;19.23;4.35;;;;;;;;;;5047528;28;20244;-87
2021/03/28 07:00:56;;;;;;;9.40;3.85;;;;;;;;;;5052879;28;20036;-87
2021/03/28 07:03:22;;;;;;;12.75;4.22;;;;;;;;;;5053758;28;20029;-87
2021/03/28 07:06:07;;;;;;;18.20;4.80;;;;;;;;;;5057487;28;20043;-87
2021/03/28 07:08:51;;;;;;;13.90;4.50;;;;;;;;;;5052588;28;20021;-88
2021/03/28 07:11:24;;;;;;;12.90;4.00;;;;;;;;;;5056974;28;20095;-88
2021/03/28 07:14:02;;;;;;;16.38;4.55;;;;;;;;;;5052051;28;20021;-87
2021/03/28 07:16:44;;;;;;;14.00;4.43;;;;;;;;;;5060981;28;20037;-87
2021/03/28 07:19:19;;;;;;;10.98;3.75;;;;;;;;;;5061703;28;20043;-88
2021/03/28 07:21:45;;;;;;;9.55;3.90;;;;;;;;;;5058753;28;20071;-88
2021/03/28 07:24:30;;;;;;;11.93;4.05;;;;;;;;;;5050525;28;20052;-88
2021/03/28 07:27:06;;;;;;;12.27;4.30;;;;;;;;;;5051265;28;20104;-88
2021/03/28 07:29:50;;;;;;;11.07;3.80;;;;;;;;;;5057685;28;20029;-88
2021/03/28 07:32:35;;;;;;;11.85;3.78;;;;;;;;;;5050140;28;20063;-88
2021/03/28 07:35:20;;;;;;;7.40;3.22;;;;;;;;;;5071317;28;20522;-87
2021/03/28 07:38:02;;;;;;;9.55;3.80;;;;;;;;;;5055010;28;20116;-88
2021/03/28 07:40:32;;;;;;;19.63;4.22;;;;;;;;;;5048788;28;20734;-87
2021/03/28 07:43:01;;;;;;;17.35;3.58;;;;;;;;;;5050737;28;20396;-88
2021/03/28 07:45:33;;;;;;;7.03;3.38;;;;;;;;;;5044689;28;20120;-88
2021/03/28 07:48:18;;;;;;;10.70;3.42;;;;;;;;;;5052758;28;20603;-88
2021/03/28 07:51:03;;;;;;;9.48;3.45;;;;;;;;;;5037392;28;20026;-88
2021/03/28 07:53:32;;;;;;;11.02;3.20;;;;;;;;;;5051695;28;20021;-88
2021/03/28 07:56:07;;;;;;;10.68;2.97;;;;;;;;;;5052874;28;20021;-88
2021/03/28 07:58:41;;;;;;;11.30;3.20;;;;;;;;;;5054139;28;20443;-89
2021/03/28 08:01:26;;;;;;;11.32;3.10;;;;;;;;;;5052151;28;20573;-89
2021/03/28 08:04:02;;;;;;;8.75;2.70;;;;;;;;;;5036295;28;20475;-88
2021/03/28 08:06:37;;;;;;;10.52;2.85;;;;;;;;;;5044825;28;20493;-88
2021/03/28 08:09:26;;;;;;;8.60;2.70;;;;;;;;;;5047861;28;20032;-89
2021/03/28 08:12:02;;;;;;;10.43;3.05;;;;;;;;;;5040905;28;20123;-89
2021/03/28 08:14:41;;;;;;;15.63;3.45;;;;;;;;;;5046574;28;20060;-88
2021/03/28 08:17:13;;;;;;;5.35;2.60;;;;;;;;;;5047419;28;20048;-89
2021/03/28 08:19:52;;;;;;;7.50;2.70;;;;;;;;;;5049091;28;20025;-89
2021/03/28 08:22:21;;;;;;;11.70;2.95;;;;;;;;;;5044464;28;20027;-89
2021/03/28 08:24:47;;;;;;;11.98;2.80;;;;;;;;;;5048511;28;20030;-88
2021/03/28 08:27:40;;;;;;;7.68;2.90;;;;;;;;;;5049786;28;20225;-89
2021/03/28 08:30:21;;;;;;;16.80;3.13;;;;;;;;;;5055566;28;20092;-88
2021/03/28 08:33:06;;;;;;;9.30;2.65;;;;;;;;;;5055391;28;20044;-89
2021/03/28 08:35:37;;;;;;;8.65;2.83;;;;;;;;;;5049561;28;20033;-88
2021/03/28 08:38:22;;;;;;;11.90;2.92;;;;;;;;;;5050063;28;20037;-89
2021/03/28 08:41:07;;;;;;;11.50;2.60;;;;;;;;;;5050193;28;20068;-89
2021/03/28 08:44:00;;;;;;;7.18;2.60;;;;;;;;;;5046504;28;20033;-88
2021/03/28 08:46:26;;;;;;;10.00;2.92;;;;;;;;;;5053162;28;20082;-89
2021/03/28 08:49:05;;;;;;;11.32;3.28;;;;;;;;;;5052238;28;20021;-89
2021/03/28 08:51:50;;;;;;;9.75;2.67;;;;;;;;;;5051041;28;20451;-89
2021/03/28 08:54:20;;;;;;;10.93;2.30;;;;;;;;;;5038408;28;20520;-89
2021/03/28 08:56:49;;;;;;;7.53;2.25;;;;;;;;;;5047757;28;20481;-89
2021/03/28 08:59:17;;;;;;;11.73;2.60;;;;;;;;;;5048929;28;20025;-89
2021/03/28 09:02:02;;;;;;;8.80;2.20;;;;;;;;;;5050373;28;20396;-89
2021/03/28 09:04:36;;;;;;;9.40;2.35;;;;;;;;;;5051471;28;20731;-88
2021/03/28 09:07:20;;;;;;;9.48;2.25;;;;;;;;;;5053126;28;20032;-88
2021/03/28 09:09:58;;;;;;;12.07;3.00;;;;;;;;;;5057499;28;20101;-89
2021/03/28 09:12:37;;;;;;;7.25;2.25;;;;;;;;;;5052629;28;20017;-89
2021/03/28 09:15:36;;;;;;;6.72;2.35;;;;;;;;;;5052839;28;20032;-88
2021/03/28 09:18:11;;;;;;;10.82;2.92;;;;;;;;;;5005228;28;20488;-89
2021/03/28 09:20:45;;;;;;;11.40;2.33;;;;;;;;;;5067586;28;20063;-89
2021/03/28 09:23:17;;;;;;;9.65;2.80;;;;;;;;;;5050862;28;20851;-89
2021/03/28 09:25:53;;;;;;;7.68;2.45;;;;;;;;;;5052710;28;20362;-89
2021/03/28 09:28:48;;;;;;;10.65;2.55;;;;;;;;;;5055705;28;20031;-89
2021/03/28 09:31:28;;;;;;;8.43;2.33;;;;;;;;;;5012243;28;20100;-89
2021/03/28 09:34:00;;;;;;;9.05;2.20;;;;;;;;;;5044019;28;20376;-89
2021/03/28 09:36:36;;;;;;;11.88;2.72;;;;;;;;;;5051787;28;20111;-89
2021/03/28 09:39:02;;;;;;;7.70;2.45;;;;;;;;;;5051818;28;20856;-89
2021/03/28 09:41:28;;;;;;;9.45;2.85;;;;;;;;;;5043709;28;20022;-88
2021/03/28 09:43:57;;;;;;;11.93;3.00;;;;;;;;;;5050306;28;20044;-88
2021/03/28 09:46:30;;;;;;;11.68;2.75;;;;;;;;;;5052166;28;20484;-88
2021/03/28 09:48:56;;;;;;;;;;;;;;;;;;5046007;28;20022;-89
2021/03/28 09:51:41;;;;;;;5.82;2.40;;;;;;;;;;5044389;28;19915;-88
2021/03/28 09:54:21;;;;;;;9.40;3.22;;;;;;;;;;5047881;28;20094;-88
2021/03/28 09:56:59;;;;;;;10.63;3.17;;;;;;;;;;5059134;28;20094;-88
2021/03/28 09:59:34;;;;;;;7.50;2.88;;;;;;;;;;5049026;28;20099;-88
2021/03/28 10:02:26;;;;;;;9.60;2.53;;;;;;;;;;5043977;28;20123;-89
2021/03/28 10:05:11;;;;;;;8.30;3.05;;;;;;;;;;5048935;28;20029;-88
2021/03/28 10:07:55;;;;;;;10.98;3.08;;;;;;;;;;5051572;28;20095;-89
2021/03/28 10:10:21;;;;;;;;;;;;;;;;;;5046498;28;20365;-89
2021/03/28 10:12:59;;;;;;;7.25;2.30;;;;;;;;;;5051899;28;19930;-89
2021/03/28 10:15:26;;;;;;;12.43;2.58;;;;;;;;;;5047013;28;20032;-89
2021/03/28 10:18:11;;;;;;;9.70;2.45;;;;;;;;;;5052547;28;20060;-88
2021/03/28 10:20:50;;;;;;;10.70;3.28;;;;;;;;;;5055545;28;20052;-89
2021/03/28 10:23:23;;;;;;;5.75;2.70;;;;;;;;;;5048355;28;20053;-88
2021/03/28 10:25:57;;;;;;;9.55;2.78;;;;;;;;;;5049008;28;20119;-88
2021/03/28 10:28:35;;;;;;;7.53;2.50;;;;;;;;;;5056316;28;20120;-89
2021/03/28 10:31:22;;;;;;;7.10;2.63;;;;;;;;;;5063032;28;20040;-89
2021/03/28 10:33:50;;;;;;;12.50;3.08;;;;;;;;;;5048781;28;20021;-89
2021/03/28 10:36:41;;;;;;;9.55;2.78;;;;;;;;;;5045536;28;20194;-89
2021/03/28 10:39:16;;;;;;;9.10;3.38;;;;;;;;;;5054385;28;20477;-89
2021/03/28 10:41:53;;;;;;;8.70;3.08;;;;;;;;;;5056749;28;20033;-89
2021/03/28 10:44:38;;;;;;;11.00;3.30;;;;;;;;;;5044799;28;20043;-89
2021/03/28 10:47:23;;;;;;;11.05;2.78;;;;;;;;;;5043675;28;20053;-89
2021/03/28 10:50:08;;;;;;;6.60;2.63;;;;;;;;;;5045719;28;20468;-89
2021/03/28 10:52:53;;;;;;;9.00;2.35;;;;;;;;;;5048737;28;20029;-89
2021/03/28 10:55:25;;;;;;;7.75;2.63;;;;;;;;;;5053143;28;20100;-89
2021/03/28 10:58:10;;;;;;;9.55;2.85;;;;;;;;;;5044074;28;20029;-89
2021/03/28 11:00:53;;;;;;;9.50;2.80;;;;;;;;;;5053717;28;20477;-89
2021/03/28 11:03:19;;;;;;;5.65;2.30;;;;;;;;;;5051558;28;20090;-89
2021/03/28 11:06:14;;;;;;;6.45;2.38;;;;;;;;;;5051315;28;20045;-89
2021/03/28 11:08:45;;;;;;;7.78;2.33;;;;;;;;;;5012246;28;20192;-89
2021/03/28 11:11:25;;;;;;;6.93;2.40;;;;;;;;;;5047627;28;20503;-90
2021/03/28 11:13:57;;;;;;;6.50;2.13;;;;;;;;;;5049839;28;20502;-89
2021/03/28 11:16:39;;;;;;;6.93;1.70;;;;;;;;;;5048612;28;20524;-90
2021/03/28 11:19:24;;;;;;;7.43;2.38;;;;;;;;;;5051449;28;20170;-89
2021/03/28 11:22:02;;;;;;;6.57;1.85;;;;;;;;;;5044989;28;20028;-90
2021/03/28 11:24:34;;;;;;;8.50;2.05;;;;;;;;;;5045484;28;20049;-90
2021/03/28 11:27:08;;;;;;;11.15;2.13;;;;;;;;;;5042412;28;20128;-89
2021/03/28 11:30:04;;;;;;;5.25;2.00;;;;;;;;;;5051149;28;20013;-89
2021/03/28 11:32:48;;;;;;;7.95;1.90;;;;;;;;;;4997720;28;20509;-89
2021/03/28 11:35:14;;;;;;;6.50;1.90;;;;;;;;;;5051033;28;20028;-89
2021/03/28 11:37:47;;;;;;;4.88;1.25;;;;;;;;;;5054047;28;20407;-89
2021/03/28 11:40:16;;;;;;;6.60;1.73;;;;;;;;;;5069117;28;20039;-89
2021/03/28 11:42:43;;;;;;;7.13;2.42;;;;;;;;;;5053297;28;20067;-89
2021/03/28 11:45:12;;;;;;;8.35;1.80;;;;;;;;;;5053979;28;20041;-88
2021/03/28 11:47:41;;;;;;;7.60;1.92;;;;;;;;;;5043362;28;20057;-88
2021/03/28 11:50:16;;;;;;;6.07;1.27;;;;;;;;;;5058998;28;20546;-88
2021/03/28 11:52:49;;;;;;;6.50;1.50;;;;;;;;;;5055505;28;20132;-88
2021/03/28 11:55:20;;;;;;;7.00;1.60;;;;;;;;;;5050540;28;20036;-88
2021/03/28 11:58:05;;;;;;;10.43;2.60;;;;;;;;;;5058813;28;20491;-89
2021/03/28 12:00:39;;;;;;;7.57;1.42;;;;;;;;;;5052328;28;20035;-89
2021/03/28 12:03:35;;;;;;;6.72;1.83;;;;;;;;;;5051418;28;20380;-88
2021/03/28 12:06:19;;;;;;;5.65;1.15;;;;;;;;;;5037795;28;20382;-88
2021/03/28 12:08:45;;;;;;;6.15;1.38;;;;;;;;;;5044833;28;20025;-88
2021/03/28 12:11:30;;;;;;;8.38;1.75;;;;;;;;;;5051626;28;20033;-88
2021/03/28 12:13:57;;;;;;;3.15;1.10;;;;;;;;;;5051356;28;20076;-89
2021/03/28 12:16:23;;;;;;;5.63;1.25;;;;;;;;;;5050651;28;20029;-88
2021/03/28 12:18:50;;;;;;;4.78;1.17;;;;;;;;;;5042674;28;20369;-89
2021/03/28 12:21:30;;;;;;;6.75;1.38;;;;;;;;;;5047010;28;20047;-89
2021/03/28 12:23:58;;;;;;;7.25;1.98;;;;;;;;;;5049625;28;20535;-89
2021/03/28 12:26:25;;;;;;;7.53;1.45;;;;;;;;;;5047461;28;20025;-89
2021/03/28 12:28:54;;;;;;;7.97;1.48;;;;;;;;;;5047291;28;20099;-90
2021/03/28 12:31:39;;;;;;;6.00;1.60;;;;;;;;;;5048192;28;20017;-89
2021/03/28 12:34:08;;;;;;;6.22;1.38;;;;;;;;;;5051153;28;20413;-90
2021/03/28 12:36:47;;;;;;;6.75;1.65;;;;;;;;;;5053859;28;20028;-88
2021/03/28 12:39:18;;;;;;;8.05;1.30;;;;;;;;;;5057367;28;20361;-89
2021/03/28 12:42:16;;;;;;;6.97;1.35;;;;;;;;;;5051979;28;20032;-89
2021/03/28 12:44:45;;;;;;;5.65;1.42;;;;;;;;;;5029900;28;20056;-89
2021/03/28 12:47:22;;;;;;;6.90;1.20;;;;;;;;;;5051429;28;20029;-89
2021/03/28 12:49:53;;;;;;;8.80;1.58;;;;;;;;;;5040835;28;20025;-89
2021/03/28 12:52:21;;;;;;;8.35;1.80;;;;;;;;;;5053813;28;20392;-88
2021/03/28 12:54:50;;;;;;;5.72;1.25;;;;;;;;;;5051370;28;20033;-89
2021/03/28 12:57:42;;;;;;;4.85;1.25;;;;;;;;;;5058850;28;20037;-88
2021/03/28 13:00:31;;;;;;;7.07;1.35;;;;;;;;;;5048586;28;20083;-88
2021/03/28 13:02:58;;;;;;;4.53;1.08;;;;;;;;;;5043368;28;20044;-88
2021/03/28 13:05:28;;;;;;;5.40;1.50;;;;;;;;;;5053055;28;20530;-88
2021/03/28 13:07:58;;;;;;;6.18;1.10;;;;;;;;;;5053385;28;20021;-88
2021/03/28 13:10:24;;;;;;;6.40;1.42;;;;;;;;;;5052951;28;20017;-87
2021/03/28 13:13:26;;;;;;;5.82;1.77;;;;;;;;;;5050984;28;20051;-91
2021/03/28 13:15:57;;;;;;;9.40;1.35;;;;;;;;;;5069020;28;20024;-89
2021/03/28 13:18:23;;;;;;;8.10;2.03;;;;;;;;;;5070366;28;20048;-89
2021/03/28 13:21:00;;;;;;;5.90;2.13;;;;;;;;;;5051931;28;20049;-88
2021/03/28 13:23:37;;;;;;;8.65;2.05;;;;;;;;;;5050318;28;20037;-88
2021/03/28 13:26:18;;;;;;;6.55;2.40;;;;;;;;;;5051726;28;20513;-88
2021/03/28 13:29:04;;;;;;;10.35;1.83;;;;;;;;;;5051036;28;20155;-87
2021/03/28 13:31:34;;;;;;;4.63;1.65;;;;;;;;;;5062605;28;20032;-89
2021/03/28 13:34:06;;;;;;;7.13;1.92;;;;;;;;;;5047466;28;20163;-88
2021/03/28 13:36:40;;;;;;;5.65;1.92;;;;;;;;;;5048044;28;20021;-88
2021/03/28 13:39:06;;;;;;;7.43;1.48;;;;;;;;;;5048683;28;20163;-88
2021/03/28 13:41:51;;;;;;;6.85;1.83;;;;;;;;;;5043925;28;20086;-88
2021/03/28 13:44:17;;;;;;;8.05;1.80;;;;;;;;;;5042065;28;20029;-88
2021/03/28 13:46:48;;;;;;;7.28;1.77;;;;;;;;;;5050636;28;20021;-88
2021/03/28 13:49:24;;;;;;;5.43;1.70;;;;;;;;;;5051345;28;20024;-88
2021/03/28 13:52:05;;;;;;;6.88;1.90;;;;;;;;;;5055825;28;20032;-89
2021/03/28 13:54:31;;;;;;;6.22;1.73;;;;;;;;;;5050062;28;20126;-89
2021/03/28 13:56:58;;;;;;;8.68;1.67;;;;;;;;;;5047407;28;20032;-89
2021/03/28 13:59:34;;;;;;;11.52;2.58;;;;;;;;;;5052989;28;20029;-89
2021/03/28 14:02:00;;;;;;;7.35;2.20;;;;;;;;;;5050424;28;20074;-88
2021/03/28 14:04:32;;;;;;;13.70;2.40;;;;;;;;;;5050941;28;20032;-88
2021/03/28 14:07:13;;;;;;;5.72;1.98;;;;;;;;;;5045313;28;20362;-88
2021/03/28 14:09:41;;;;;;;6.53;1.80;;;;;;;;;;5052499;28;20033;-88
2021/03/28 14:12:09;;;;;;;6.30;2.28;;;;;;;;;;5052089;28;20063;-88
2021/03/28 14:14:40;;;;;;;6.32;2.13;;;;;;;;;;5052405;28;20515;-88
2021/03/28 14:17:26;;;;;;;8.32;2.15;;;;;;;;;;5050891;28;20678;-88
2021/03/28 14:20:15;;;;;;;14.38;2.90;;;;;;;;;;5054427;28;20116;-89
2021/03/28 14:22:46;;;;;;;8.15;2.20;;;;;;;;;;5045709;28;20045;-88
2021/03/28 14:25:27;;;;;;;6.25;2.33;;;;;;;;;;5054713;28;20132;-89
2021/03/28 14:27:53;;;;;;;9.13;1.95;;;;;;;;;;5054411;28;20024;-89
2021/03/28 14:30:33;;;;;;;5.35;2.05;;;;;;;;;;5054647;28;20037;-89
2021/03/28 14:33:04;;;;;;;6.43;1.63;;;;;;;;;;5047986;28;20036;-89
2021/03/28 14:35:30;;;;;;;5.57;2.35;;;;;;;;;;5047322;28;20083;-89
2021/03/28 14:38:16;;;;;;;9.65;1.80;;;;;;;;;;5054986;28;20419;-89
2021/03/28 14:40:49;;;;;;;7.60;2.13;;;;;;;;;;5054227;28;20043;-90
2021/03/28 14:43:15;;;;;;;4.97;1.60;;;;;;;;;;5053809;28;20043;-89
2021/03/28 14:45:48;;;;;;;9.25;1.92;;;;;;;;;;5046986;28;20029;-89
2021/03/28 14:48:17;;;;;;;6.23;2.00;;;;;;;;;;5054566;28;20026;-89
2021/03/28 14:50:46;;;;;;;6.75;2.60;;;;;;;;;;5053337;28;20677;-88
2021/03/28 14:53:25;;;;;;;5.70;2.15;;;;;;;;;;5056480;28;20059;-88
2021/03/28 14:56:10;;;;;;;14.25;2.60;;;;;;;;;;5051645;28;20028;-87
2021/03/28 14:58:48;;;;;;;6.35;2.08;;;;;;;;;;5052899;28;20033;-88
2021/03/28 15:01:21;;;;;;;6.43;2.17;;;;;;;;;;5052827;28;20044;-89
2021/03/28 15:03:59;;;;;;;10.57;2.60;;;;;;;;;;5053279;28;20377;-89
2021/03/28 15:06:31;;;;;;;10.18;2.42;;;;;;;;;;5050987;28;20032;-89
2021/03/28 15:09:06;;;;;;;7.78;1.98;;;;;;;;;;5046587;28;20840;-89
2021/03/28 15:11:37;;;;;;;5.78;1.98;;;;;;;;;;5054870;28;20753;-89
2021/03/28 15:14:03;;;;;;;4.60;2.17;;;;;;;;;;5056019;28;20370;-88
2021/03/28 15:16:34;;;;;;;7.82;2.03;;;;;;;;;;5054466;28;20067;-89
2021/03/28 15:19:09;;;;;;;4.95;1.77;;;;;;;;;;5055877;28;20033;-89
2021/03/28 15:21:51;;;;;;;7.72;2.60;;;;;;;;;;5055362;28;20029;-89
2021/03/28 15:24:23;;;;;;;9.40;1.98;;;;;;;;;;5053348;28;20048;-89
2021/03/28 15:27:07;;;;;;;4.93;1.75;;;;;;;;;;5055488;28;20029;-89
2021/03/28 15:29:37;;;;;;;7.22;2.05;;;;;;;;;;5052597;28;20044;-89
2021/03/28 15:32:28;;;;;;;7.50;2.05;;;;;;;;;;5047909;28;20037;-89